createdAt,value
2018-06-04T00:01:55.668Z,82.50
2018-06-04T00:04:23.970Z,82.50
2018-06-04T00:06:52.301Z,82.50
2018-06-04T00:09:20.601Z,82.80
2018-06-04T00:11:48.875Z,83.00
2018-06-04T00:14:17.279Z,82.90
2018-06-04T00:16:45.602Z,83.00
2018-06-04T00:19:13.958Z,83.10
2018-06-04T00:21:42.339Z,82.50
2018-06-04T00:24:10.694Z,83.30
2018-06-04T00:26:39.031Z,83.20
2018-06-04T00:29:07.316Z,83.30
2018-06-04T00:31:35.607Z,83.30
2018-06-04T00:34:03.909Z,83.00
2018-06-04T00:36:32.205Z,83.30
2018-06-04T00:39:00.510Z,83.40
2018-06-04T00:41:28.786Z,83.70
2018-06-04T00:43:57.354Z,83.90
2018-06-04T00:46:25.641Z,83.90
2018-06-04T00:48:53.937Z,84.10
2018-06-04T00:51:22.238Z,83.90
2018-06-04T00:53:50.549Z,84.10
2018-06-04T00:56:22.466Z,84.00
2018-06-04T00:58:50.852Z,84.10
2018-06-04T01:01:19.454Z,84.40
2018-06-04T01:03:47.861Z,84.30
2018-06-04T01:06:16.268Z,84.60
2018-06-04T01:08:44.680Z,84.70
2018-06-04T01:11:13.001Z,84.60
2018-06-04T01:13:41.286Z,84.70
2018-06-04T01:16:09.607Z,84.90
2018-06-04T01:18:37.887Z,84.80
2018-06-04T01:21:06.266Z,85.00
2018-06-04T01:23:34.566Z,85.00
2018-06-04T01:26:02.867Z,84.90
2018-06-04T01:28:31.162Z,85.00
2018-06-04T01:30:59.441Z,85.10
2018-06-04T01:33:27.726Z,85.20
2018-06-04T01:35:56.081Z,85.30
2018-06-04T01:38:24.417Z,85.20
2018-06-04T01:40:52.775Z,85.40
2018-06-04T01:43:21.490Z,85.40
2018-06-04T01:45:49.841Z,85.60
2018-06-04T01:48:18.217Z,85.70
2018-06-04T01:50:46.514Z,85.90
2018-06-04T01:53:14.801Z,86.00
2018-06-04T01:55:43.098Z,86.10
2018-06-04T01:58:11.497Z,86.30
2018-06-04T02:00:39.784Z,86.20
2018-06-04T02:03:08.080Z,86.30
2018-06-04T02:05:36.358Z,86.10
2018-06-04T02:08:04.677Z,86.10
2018-06-04T02:10:32.959Z,86.00
2018-06-04T02:13:01.346Z,86.10
2018-06-04T02:15:29.721Z,86.80
2018-06-04T02:17:58.123Z,86.30
2018-06-04T02:20:26.906Z,86.40
2018-06-04T02:22:55.209Z,86.60
2018-06-04T02:25:23.526Z,86.60
2018-06-04T02:27:51.807Z,86.70
2018-06-04T02:30:20.161Z,86.90
2018-06-04T02:32:48.534Z,87.20
2018-06-04T02:35:16.989Z,87.30
2018-06-04T02:37:45.259Z,87.30
2018-06-04T02:40:13.566Z,87.40
2018-06-04T02:42:41.847Z,87.40
2018-06-04T02:45:10.136Z,87.30
2018-06-04T02:47:38.416Z,87.50
2018-06-04T02:50:06.851Z,87.50
2018-06-04T02:52:35.114Z,87.50
2018-06-04T02:55:03.471Z,87.50
2018-06-04T02:57:31.758Z,87.60
2018-06-04T03:00:00.020Z,87.70
2018-06-04T03:02:28.338Z,87.80
2018-06-04T03:04:56.631Z,87.70
2018-06-04T03:07:25.029Z,87.70
2018-06-04T03:09:53.325Z,87.80
2018-06-04T03:12:21.650Z,87.80
2018-06-04T03:14:49.957Z,88.60
2018-06-04T03:17:18.250Z,87.80
2018-06-04T03:19:46.537Z,87.80
2018-06-04T03:24:42.919Z,87.90
2018-06-04T03:27:11.273Z,88.00
2018-06-04T03:29:39.635Z,87.90
2018-06-04T03:32:07.932Z,87.90
2018-06-04T03:34:36.220Z,87.80
2018-06-04T03:37:04.613Z,87.80
2018-06-04T03:39:32.936Z,88.00
2018-06-04T03:42:01.286Z,88.20
2018-06-04T03:44:29.637Z,88.30
2018-06-04T03:46:58.023Z,88.30
2018-06-04T03:49:27.165Z,88.50
2018-06-04T03:51:55.638Z,88.40
2018-06-04T03:54:23.988Z,88.20
2018-06-04T03:56:52.254Z,88.10
2018-06-04T03:59:20.547Z,88.00
2018-06-04T04:01:48.964Z,87.90
2018-06-04T04:04:17.437Z,87.90
2018-06-04T04:06:45.886Z,87.70
2018-06-04T04:09:14.222Z,87.20
2018-06-04T04:11:42.553Z,87.20
2018-06-04T04:14:10.902Z,87.20
2018-06-04T04:16:39.998Z,87.20
2018-06-04T04:19:08.400Z,87.00
2018-06-04T04:21:36.714Z,87.10
2018-06-04T04:24:05.010Z,87.00
2018-06-04T04:26:33.303Z,87.00
2018-06-04T04:29:01.579Z,87.10
2018-06-04T04:31:29.868Z,87.20
2018-06-04T04:33:58.198Z,86.80
2018-06-04T04:36:26.500Z,86.70
2018-06-04T04:38:54.822Z,86.60
2018-06-04T04:41:23.294Z,86.50
2018-06-04T04:43:51.652Z,86.40
2018-06-04T04:46:19.974Z,86.00
2018-06-04T04:48:48.721Z,86.10
2018-06-04T04:51:17.046Z,86.20
2018-06-04T04:53:45.325Z,85.70
2018-06-04T04:56:13.641Z,85.70
2018-06-04T04:58:42.020Z,85.50
2018-06-04T05:01:10.301Z,85.40
2018-06-04T05:03:38.612Z,85.40
2018-06-04T05:06:06.990Z,85.50
2018-06-04T05:08:35.327Z,84.80
2018-06-04T05:11:03.807Z,84.50
2018-06-04T05:13:32.154Z,84.60
2018-06-04T05:16:01.214Z,84.50
2018-06-04T05:18:30.197Z,84.30
2018-06-04T05:20:59.042Z,84.50
2018-06-04T05:23:27.561Z,84.30
2018-06-04T05:25:55.871Z,84.30
2018-06-04T05:28:24.190Z,84.20
2018-06-04T05:30:52.501Z,84.20
2018-06-04T05:33:20.798Z,84.10
2018-06-04T05:35:49.095Z,84.20
2018-06-04T05:38:17.416Z,83.90
2018-06-04T05:40:45.762Z,84.10
2018-06-04T05:43:14.084Z,83.80
2018-06-04T05:45:42.408Z,83.60
2018-06-04T05:48:10.714Z,83.50
2018-06-04T05:50:39.089Z,83.10
2018-06-04T05:53:07.503Z,82.80
2018-06-04T05:55:35.902Z,82.70
2018-06-04T05:58:05.122Z,82.60
2018-06-04T06:00:33.621Z,82.50
2018-06-04T06:03:02.938Z,82.00
2018-06-04T06:05:31.311Z,81.60
2018-06-04T06:07:59.634Z,81.90
2018-06-04T06:10:27.930Z,81.90
2018-06-04T06:12:56.293Z,81.90
2018-06-04T06:15:24.726Z,81.90
2018-06-04T06:17:53.093Z,82.00
2018-06-04T06:20:21.447Z,81.80
2018-06-04T06:22:49.724Z,81.90
2018-06-04T06:25:18.039Z,81.50
2018-06-04T06:27:46.362Z,81.30
2018-06-04T06:30:14.889Z,81.20
2018-06-04T06:32:43.397Z,81.00
2018-06-04T06:35:11.961Z,80.70
2018-06-04T06:37:40.435Z,80.40
2018-06-04T06:40:08.799Z,80.50
2018-06-04T06:42:37.103Z,80.50
2018-06-04T06:45:05.414Z,80.30
2018-06-04T06:47:33.766Z,79.90
2018-06-04T06:50:02.071Z,80.30
2018-06-04T06:52:30.362Z,80.40
2018-06-04T06:54:58.744Z,80.50
2018-06-04T06:57:27.064Z,80.60
2018-06-04T06:59:55.437Z,80.40
2018-06-04T07:02:23.734Z,79.70
2018-06-04T07:04:52.062Z,79.30
2018-06-04T07:07:20.768Z,79.20
2018-06-04T07:09:49.251Z,79.20
2018-06-04T07:12:18.493Z,79.10
2018-06-04T07:14:47.218Z,79.70
2018-06-04T07:17:15.782Z,79.70
2018-06-04T07:19:44.105Z,80.20
2018-06-04T07:22:12.409Z,79.70
2018-06-04T07:24:40.717Z,79.80
2018-06-04T07:27:09.010Z,79.80
2018-06-04T07:29:37.418Z,79.20
2018-06-04T07:32:05.830Z,79.40
2018-06-04T07:34:34.130Z,79.20
2018-06-04T07:37:02.448Z,78.60
2018-06-04T07:39:30.755Z,78.80
2018-06-04T07:41:59.102Z,78.90
2018-06-04T07:44:27.430Z,79.20
2018-06-04T07:46:58.405Z,78.40
2018-06-04T07:49:26.755Z,78.80
2018-06-04T07:54:23.211Z,78.30
2018-06-04T07:56:51.587Z,78.10
2018-06-04T07:59:19.897Z,77.80
2018-06-04T08:01:48.249Z,77.60
2018-06-04T08:04:16.598Z,77.50
2018-06-04T08:06:44.869Z,76.00
2018-06-04T08:09:13.350Z,75.60
2018-06-04T08:11:41.989Z,75.00
2018-06-04T08:14:10.281Z,74.80
2018-06-04T08:16:38.634Z,75.40
2018-06-04T08:19:06.995Z,75.40
2018-06-04T08:21:35.339Z,75.10
2018-06-04T08:24:03.666Z,74.80
2018-06-04T08:26:31.964Z,74.70
2018-06-04T08:29:00.313Z,73.40
2018-06-04T08:31:28.734Z,72.90
2018-06-04T08:33:57.083Z,72.80
2018-06-04T08:36:25.367Z,73.40
2018-06-04T08:38:53.685Z,73.20
2018-06-04T08:41:22.090Z,71.90
2018-06-04T08:43:50.389Z,72.20
2018-06-04T08:46:18.667Z,72.20
2018-06-04T08:48:46.940Z,72.30
2018-06-04T08:51:15.235Z,72.20
2018-06-04T08:53:43.527Z,71.70
2018-06-04T08:56:11.899Z,70.60
2018-06-04T08:58:40.487Z,70.10
2018-06-04T09:01:08.915Z,69.80
2018-06-04T09:03:37.376Z,68.40
2018-06-04T09:06:05.682Z,69.10
2018-06-04T09:08:33.985Z,69.10
2018-06-04T09:11:02.295Z,69.40
2018-06-04T09:13:30.611Z,69.10
2018-06-04T09:15:58.962Z,68.10
2018-06-04T09:18:27.362Z,67.10
2018-06-04T09:20:55.713Z,68.10
2018-06-04T09:23:24.008Z,67.80
2018-06-04T09:25:52.895Z,68.20
2018-06-04T09:28:21.196Z,68.30
2018-06-04T09:30:49.513Z,67.20
2018-06-04T09:33:17.838Z,65.50
2018-06-04T09:35:46.141Z,65.70
2018-06-04T09:38:14.470Z,65.90
2018-06-04T09:40:42.873Z,65.30
2018-06-04T09:43:11.321Z,64.50
2018-06-04T09:45:40.138Z,63.20
2018-06-04T09:48:08.478Z,64.00
2018-06-04T09:50:36.852Z,64.10
2018-06-04T09:53:05.166Z,64.10
2018-06-04T09:55:33.443Z,63.70
2018-06-04T09:58:01.798Z,63.50
2018-06-04T10:00:36.046Z,62.70
2018-06-04T10:03:04.885Z,62.20
2018-06-04T10:05:33.224Z,61.70
2018-06-04T10:08:01.548Z,59.70
2018-06-04T10:10:29.866Z,59.20
2018-06-04T10:12:58.195Z,60.40
2018-06-04T10:15:26.518Z,60.80
2018-06-04T10:17:54.867Z,60.60
2018-06-04T10:20:23.185Z,63.10
2018-06-04T10:22:51.658Z,64.70
2018-06-04T10:25:20.033Z,65.40
2018-06-04T10:27:48.452Z,65.90
2018-06-04T10:30:16.876Z,65.80
2018-06-04T10:32:45.571Z,66.50
2018-06-04T10:35:14.149Z,65.50
2018-06-04T10:37:42.501Z,65.50
2018-06-04T10:40:10.806Z,65.30
2018-06-04T10:42:39.084Z,65.30
2018-06-04T10:45:07.405Z,65.90
2018-06-04T10:47:35.717Z,66.20
2018-06-04T10:50:04.026Z,66.90
2018-06-04T10:52:32.343Z,67.20
2018-06-04T10:55:00.682Z,67.60
2018-06-04T10:57:29.009Z,66.90
2018-06-04T10:59:57.294Z,66.20
2018-06-04T11:02:25.664Z,66.10
2018-06-04T11:04:54.096Z,66.20
2018-06-04T11:07:22.801Z,64.70
2018-06-04T11:09:51.139Z,64.90
2018-06-04T11:12:19.465Z,64.80
2018-06-04T11:14:47.841Z,63.80
2018-06-04T11:17:16.191Z,64.70
2018-06-04T11:19:44.618Z,65.40
2018-06-04T11:22:12.994Z,65.60
2018-06-04T11:24:41.546Z,65.60
2018-06-04T11:27:09.830Z,65.70
2018-06-04T11:29:38.223Z,65.10
2018-06-04T11:32:06.567Z,64.80
2018-06-04T11:34:34.915Z,64.70
2018-06-04T11:37:03.264Z,63.50
2018-06-04T11:39:31.696Z,63.80
2018-06-04T11:42:00.095Z,63.50
2018-06-04T11:44:28.682Z,63.80
2018-06-04T11:46:57.002Z,64.10
2018-06-04T11:49:25.494Z,63.50
2018-06-04T11:51:53.781Z,64.40
2018-06-04T11:54:22.073Z,63.70
2018-06-04T11:56:50.470Z,64.50
2018-06-04T11:59:18.823Z,64.70
2018-06-04T12:01:47.163Z,63.70
2018-06-04T12:04:15.436Z,63.20
2018-06-04T12:06:43.817Z,62.00
2018-06-04T12:09:12.186Z,62.10
2018-06-04T12:11:40.549Z,62.40
2018-06-04T12:14:08.979Z,62.30
2018-06-04T12:16:37.383Z,62.80
2018-06-04T12:19:05.782Z,60.90
2018-06-04T12:21:34.230Z,62.10
2018-06-04T12:24:02.532Z,63.10
2018-06-04T12:26:30.820Z,63.10
2018-06-04T12:28:59.198Z,62.70
2018-06-04T12:31:27.504Z,61.90
2018-06-04T12:33:56.261Z,61.20
2018-06-04T12:36:24.579Z,61.50
2018-06-04T12:38:52.892Z,60.40
2018-06-04T12:41:21.213Z,60.40
2018-06-04T12:43:49.521Z,60.40
2018-06-04T12:46:17.801Z,60.60
2018-06-04T12:48:46.110Z,60.50
2018-06-04T12:51:14.541Z,60.70
2018-06-04T12:53:43.091Z,59.40
2018-06-04T12:56:11.606Z,59.50
2018-06-04T12:58:40.042Z,58.80
2018-06-04T13:01:08.365Z,58.20
2018-06-04T13:03:36.799Z,58.00
2018-06-04T13:06:05.146Z,58.00
2018-06-04T13:08:33.469Z,57.20
2018-06-04T13:11:01.787Z,56.50
2018-06-04T13:15:58.214Z,58.50
2018-06-04T13:18:26.488Z,58.10
2018-06-04T13:20:54.933Z,58.00
2018-06-04T13:23:23.286Z,57.60
2018-06-04T13:25:51.784Z,57.20
2018-06-04T13:28:20.366Z,57.00
2018-06-04T13:30:49.016Z,57.20
2018-06-04T13:33:18.598Z,56.90
2018-06-04T13:35:48.023Z,56.70
2018-06-04T13:38:16.405Z,57.90
2018-06-04T13:40:44.733Z,58.00
2018-06-04T13:43:13.058Z,58.10
2018-06-04T13:45:43.769Z,58.60
2018-06-04T13:48:12.880Z,57.90
2018-06-04T13:50:41.211Z,58.50
2018-06-04T13:53:09.481Z,58.70
2018-06-04T13:55:38.827Z,57.50
2018-06-04T13:58:07.209Z,57.70
2018-06-04T14:00:35.713Z,57.00
2018-06-04T14:03:04.014Z,57.00
2018-06-04T14:05:32.284Z,55.90
2018-06-04T14:08:00.735Z,56.10
2018-06-04T14:10:29.152Z,56.10
2018-06-04T14:12:57.751Z,56.80
2018-06-04T14:15:26.177Z,57.70
2018-06-04T14:17:54.920Z,56.90
2018-06-04T14:22:56.757Z,57.10
2018-06-04T14:27:53.318Z,56.60
2018-06-04T14:30:21.752Z,56.70
2018-06-04T14:32:50.678Z,56.90
2018-06-04T14:35:19.010Z,57.70
2018-06-04T14:37:47.364Z,57.80
2018-06-04T14:40:15.738Z,56.80
2018-06-04T14:42:44.209Z,56.30
2018-06-04T14:45:12.482Z,56.40
2018-06-04T14:47:40.770Z,55.50
2018-06-04T14:50:09.077Z,54.70
2018-06-04T14:52:37.449Z,54.60
2018-06-04T14:55:05.805Z,54.30
2018-06-04T14:57:34.297Z,55.00
2018-06-04T15:00:02.742Z,55.40
2018-06-04T15:02:31.258Z,54.90
2018-06-04T15:04:59.625Z,54.80
2018-06-04T15:07:27.969Z,54.70
2018-06-04T15:09:56.336Z,55.60
2018-06-04T15:12:24.561Z,55.40
2018-06-04T15:14:52.979Z,55.20
2018-06-04T15:17:21.281Z,53.90
2018-06-04T15:19:49.745Z,53.40
2018-06-04T15:22:18.203Z,53.90
2018-06-04T15:24:46.553Z,53.80
2018-06-04T15:27:14.845Z,53.60
2018-06-04T15:29:43.139Z,53.60
2018-06-04T15:32:11.544Z,53.80
2018-06-04T15:34:39.925Z,53.90
2018-06-04T15:37:08.465Z,54.30
2018-06-04T15:39:36.974Z,55.00
2018-06-04T15:42:05.362Z,55.40
2018-06-04T15:44:33.696Z,55.00
2018-06-04T15:47:02.096Z,55.50
2018-06-04T15:49:30.398Z,55.30
2018-06-04T15:51:58.765Z,55.00
2018-06-04T15:54:27.118Z,54.20
2018-06-04T15:56:55.435Z,54.60
2018-06-04T15:59:23.794Z,54.40
2018-06-04T16:01:52.169Z,55.20
2018-06-04T16:04:20.477Z,55.30
2018-06-04T16:06:48.825Z,55.20
2018-06-04T16:11:46.258Z,54.80
2018-06-04T16:14:14.711Z,55.40
2018-06-04T16:16:43.211Z,55.90
2018-06-04T16:19:11.721Z,56.30
2018-06-04T16:21:40.022Z,56.70
2018-06-04T16:24:08.887Z,56.20
2018-06-04T16:26:37.175Z,56.20
2018-06-04T16:29:05.490Z,56.00
2018-06-04T16:31:33.847Z,55.70
2018-06-04T16:34:02.210Z,55.80
2018-06-04T16:36:30.636Z,56.30
2018-06-04T16:38:59.018Z,56.10
2018-06-04T16:41:27.368Z,55.20
2018-06-04T16:43:55.836Z,54.70
2018-06-04T16:48:52.370Z,55.80
2018-06-04T16:51:20.936Z,56.60
2018-06-04T16:53:49.433Z,56.30
2018-06-04T16:56:18.002Z,56.60
2018-06-04T16:58:46.352Z,56.90
2018-06-04T17:01:14.835Z,56.20
2018-06-04T17:03:43.229Z,56.30
2018-06-04T17:06:11.589Z,56.90
2018-06-04T17:08:39.990Z,56.40
2018-06-04T17:11:08.491Z,57.20
2018-06-04T17:13:36.876Z,57.50
2018-06-04T17:16:05.519Z,57.30
2018-06-04T17:18:33.922Z,57.70
2018-06-04T17:21:02.303Z,57.70
2018-06-04T17:23:31.780Z,58.00
2018-06-04T17:26:00.279Z,58.20
2018-06-04T17:28:28.814Z,58.10
2018-06-04T17:30:57.311Z,58.20
2018-06-04T17:33:25.900Z,58.70
2018-06-04T17:35:54.600Z,58.70
2018-06-04T17:38:22.993Z,58.80
2018-06-04T17:40:51.366Z,58.90
2018-06-04T17:43:19.721Z,58.80
2018-06-04T17:45:48.105Z,58.80
2018-06-04T17:48:16.583Z,58.90
2018-06-04T17:50:44.928Z,59.10
2018-06-04T17:53:13.252Z,59.40
2018-06-04T17:55:41.705Z,59.40
2018-06-04T17:58:10.017Z,59.90
2018-06-04T18:00:38.410Z,59.70
2018-06-04T18:03:07.097Z,60.00
2018-06-04T18:05:35.454Z,60.30
2018-06-04T18:08:03.852Z,60.20
2018-06-04T18:10:32.213Z,60.30
2018-06-04T18:13:00.609Z,60.30
2018-06-04T18:15:29.103Z,60.40
2018-06-04T18:17:57.739Z,61.30
2018-06-04T18:20:26.060Z,60.40
2018-06-04T18:22:54.434Z,60.50
2018-06-04T18:25:22.777Z,60.30
2018-06-04T18:27:51.081Z,60.40
2018-06-04T18:30:19.441Z,60.20
2018-06-04T18:32:47.960Z,60.30
2018-06-04T18:35:16.289Z,60.30
2018-06-04T18:37:44.747Z,60.20
2018-06-04T18:40:13.155Z,60.50
2018-06-04T18:42:41.597Z,60.60
2018-06-04T18:45:10.040Z,60.50
2018-06-04T18:47:38.465Z,60.80
2018-06-04T18:50:09.111Z,61.10
2018-06-04T18:52:37.634Z,61.90
2018-06-04T18:55:06.189Z,61.70
2018-06-04T18:57:34.497Z,62.40
2018-06-04T19:00:02.782Z,63.20
2018-06-04T19:02:31.209Z,64.20
2018-06-04T19:04:59.606Z,65.40
2018-06-04T19:07:27.986Z,66.60
2018-06-04T19:09:56.352Z,67.40
2018-06-04T19:12:24.659Z,68.00
2018-06-04T19:14:53.020Z,68.50
2018-06-04T19:17:21.389Z,69.00
2018-06-04T19:19:49.698Z,69.70
2018-06-04T19:22:17.996Z,70.40
2018-06-04T19:24:46.425Z,70.80
2018-06-04T19:27:14.913Z,71.10
2018-06-04T19:29:43.233Z,71.70
2018-06-04T19:32:11.593Z,72.10
2018-06-04T19:34:40.238Z,72.50
2018-06-04T19:37:08.558Z,73.00
2018-06-04T19:39:36.945Z,73.20
2018-06-04T19:42:05.305Z,73.60
2018-06-04T19:44:33.742Z,73.60
2018-06-04T19:47:02.455Z,74.00
2018-06-04T19:49:30.773Z,74.30
2018-06-04T19:51:59.052Z,74.60
2018-06-04T19:54:27.383Z,75.10
2018-06-04T19:56:55.706Z,76.00
2018-06-04T20:01:52.345Z,76.00
2018-06-04T20:04:20.906Z,76.40
2018-06-04T20:06:49.610Z,76.30
2018-06-04T20:09:17.974Z,76.10
2018-06-04T20:11:46.298Z,76.60
2018-06-04T20:14:14.606Z,76.80
2018-06-04T20:16:42.982Z,77.10
2018-06-04T20:19:12.749Z,77.30
2018-06-04T20:24:09.153Z,77.60
2018-06-04T20:26:37.466Z,77.50
2018-06-04T20:29:05.768Z,77.80
2018-06-04T20:34:02.202Z,77.90
2018-06-04T20:36:30.626Z,78.10
2018-06-04T20:38:59.154Z,78.30
2018-06-04T20:41:27.621Z,78.30
2018-06-04T20:43:56.297Z,78.20
2018-06-04T20:46:24.816Z,78.30
2018-06-04T20:48:53.225Z,78.40
2018-06-04T20:51:21.644Z,78.20
2018-06-04T20:53:50.034Z,77.90
2018-06-04T20:56:18.473Z,78.10
2018-06-04T20:58:46.813Z,78.80
2018-06-04T21:01:15.169Z,78.30
2018-06-04T21:03:43.613Z,78.70
2018-06-04T21:06:12.074Z,78.60
2018-06-04T21:08:40.668Z,78.80
2018-06-04T21:11:09.156Z,79.20
2018-06-04T21:13:37.449Z,79.40
2018-06-04T21:16:05.843Z,79.40
2018-06-04T21:18:34.210Z,79.30
2018-06-04T21:21:02.904Z,79.20
2018-06-04T21:23:31.385Z,79.60
2018-06-04T21:25:59.741Z,79.40
2018-06-04T21:28:28.165Z,79.30
2018-06-04T21:30:56.621Z,79.10
2018-06-04T21:33:25.177Z,79.30
2018-06-04T21:35:53.665Z,78.90
2018-06-04T21:38:22.059Z,79.00
2018-06-04T21:40:50.444Z,78.80
2018-06-04T21:43:18.802Z,78.80
2018-06-04T21:45:47.122Z,78.80
2018-06-04T21:48:15.477Z,78.60
2018-06-04T21:50:43.805Z,78.70
2018-06-04T21:53:12.176Z,78.60
2018-06-04T21:55:40.513Z,78.70
2018-06-04T21:58:08.944Z,78.50
2018-06-04T22:00:37.814Z,78.40
2018-06-04T22:03:06.387Z,78.50
2018-06-04T22:05:34.801Z,78.30
2018-06-04T22:08:03.191Z,78.40
2018-06-04T22:10:31.617Z,78.20
2018-06-04T22:12:59.887Z,78.20
2018-06-04T22:15:28.213Z,78.10
2018-06-04T22:17:56.542Z,78.20
2018-06-04T22:20:24.865Z,78.20
2018-06-04T22:22:53.213Z,78.30
2018-06-04T22:25:21.600Z,78.20
2018-06-04T22:27:49.895Z,78.20
2018-06-04T22:30:18.257Z,78.30
2018-06-04T22:32:46.644Z,78.50
2018-06-04T22:35:15.087Z,78.60
2018-06-04T22:37:43.856Z,78.70
2018-06-04T22:40:12.205Z,78.70
2018-06-04T22:42:40.548Z,78.70
2018-06-04T22:45:08.987Z,78.70
2018-06-04T22:47:37.285Z,78.80
2018-06-04T22:50:05.598Z,79.00
2018-06-04T22:52:33.928Z,79.10
2018-06-04T22:55:02.313Z,79.10
2018-06-04T22:57:30.709Z,79.10
2018-06-04T22:59:59.092Z,79.30
2018-06-04T23:02:27.485Z,78.70
2018-06-04T23:04:55.825Z,79.30
2018-06-04T23:07:24.110Z,79.10
2018-06-04T23:09:52.521Z,79.10
2018-06-04T23:12:20.997Z,79.20
2018-06-04T23:14:49.425Z,79.00
2018-06-04T23:17:17.839Z,79.20
2018-06-04T23:19:46.194Z,79.50
2018-06-04T23:22:14.535Z,79.90
2018-06-04T23:24:42.900Z,80.10
2018-06-04T23:27:11.611Z,80.10
2018-06-04T23:29:39.994Z,80.30
2018-06-04T23:32:08.282Z,80.20
2018-06-04T23:34:36.622Z,80.30
2018-06-04T23:37:04.934Z,80.60
2018-06-04T23:39:33.294Z,80.60
2018-06-04T23:42:01.654Z,80.90
2018-06-04T23:44:29.948Z,80.80
2018-06-04T23:46:58.324Z,81.20
2018-06-04T23:49:27.644Z,81.40
2018-06-04T23:51:55.973Z,81.40
2018-06-04T23:54:24.252Z,81.50
2018-06-04T23:56:52.594Z,81.60
2018-06-04T23:59:20.892Z,81.40
